Time,TemperatureF,DewpointF,PressureIn,WindDirection,WindDirectionDegrees,WindSpeedMPH,WindSpeedGustMPH,Humidity,HourlyPrecipIn,Conditions,Clouds,dailyrainin,SolarRadiationWatts/m^2,SoftwareType,DateUTC
2013-01-29 00:01:00,8.0,0.0,-100.00,West,275,4.0,7.0,69,-99.99,,,-99.99,0.000000,,2013-01-29 07:01:00,
2013-01-29 00:11:00,8.0,0.0,-100.00,West,275,4.0,7.0,69,-99.99,,,-99.99,0.000000,,2013-01-29 07:11:00,
2013-01-29 00:32:00,7.0,-1.0,-100.00,West,280,4.0,7.0,68,-99.99,,,-99.99,0.000000,,2013-01-29 07:32:00,
2013-01-29 00:42:00,7.0,-1.0,-100.00,West,280,4.0,7.0,68,-99.99,,,-99.99,0.000000,,2013-01-29 07:42:00,
2013-01-29 00:52:00,7.0,-1.0,-100.00,West,280,4.0,7.0,68,-99.99,,,-99.99,0.000000,,2013-01-29 07:52:00,
2013-01-29 01:01:00,7.0,-1.0,-100.00,West,280,4.0,7.0,68,-99.99,,,-99.99,0.000000,,2013-01-29 08:01:00,
2013-01-29 01:11:00,7.0,-1.0,-100.00,West,280,4.0,7.0,68,-99.99,,,-99.99,0.000000,,2013-01-29 08:11:00,
2013-01-29 01:42:00,7.0,0.0,-100.00,West,273,1.0,8.0,73,-99.99,,,-99.99,0.000000,,2013-01-29 08:42:00,
2013-01-29 01:52:00,7.0,0.0,-100.00,West,273,1.0,8.0,73,-99.99,,,-99.99,0.000000,,2013-01-29 08:52:00,
2013-01-29 02:01:00,7.0,0.0,-100.00,West,273,1.0,8.0,73,-99.99,,,-99.99,0.000000,,2013-01-29 09:01:00,
2013-01-29 02:11:00,7.0,0.0,-100.00,West,273,1.0,8.0,73,-99.99,,,-99.99,0.000000,,2013-01-29 09:11:00,
2013-01-29 02:42:00,11.0,0.0,-100.00,West,274,2.0,5.0,60,-99.99,,,-99.99,0.000000,,2013-01-29 09:42:00,
2013-01-29 02:52:00,11.0,0.0,-100.00,West,274,2.0,5.0,60,-99.99,,,-99.99,0.000000,,2013-01-29 09:52:00,
2013-01-29 03:01:00,11.0,0.0,-100.00,West,274,2.0,5.0,60,-99.99,,,-99.99,0.000000,,2013-01-29 10:01:00,
2013-01-29 03:11:00,11.0,0.0,-100.00,West,274,2.0,5.0,60,-99.99,,,-99.99,0.000000,,2013-01-29 10:11:00,
2013-01-29 03:42:00,12.0,0.0,-100.00,West,260,2.0,8.0,58,-99.99,,,-99.99,0.000000,,2013-01-29 10:42:00,
2013-01-29 03:52:00,12.0,0.0,-100.00,West,260,2.0,8.0,58,-99.99,,,-99.99,0.000000,,2013-01-29 10:52:00,
2013-01-29 04:01:00,12.0,0.0,-100.00,West,260,2.0,8.0,58,-99.99,,,-99.99,0.000000,,2013-01-29 11:01:00,
2013-01-29 04:11:00,12.0,0.0,-100.00,West,260,2.0,8.0,58,-99.99,,,-99.99,0.000000,,2013-01-29 11:11:00,
2013-01-29 04:32:00,11.0,1.0,-100.00,WSW,252,2.0,5.0,62,-99.99,,,-99.99,0.000000,,2013-01-29 11:32:00,
2013-01-29 04:42:00,11.0,1.0,-100.00,WSW,252,2.0,5.0,62,-99.99,,,-99.99,0.000000,,2013-01-29 11:42:00,
2013-01-29 04:52:00,11.0,1.0,-100.00,WSW,252,2.0,5.0,62,-99.99,,,-99.99,0.000000,,2013-01-29 11:52:00,
2013-01-29 05:02:00,11.0,1.0,-100.00,WSW,252,2.0,5.0,62,-99.99,,,-99.99,0.000000,,2013-01-29 12:02:00,
2013-01-29 05:12:00,11.0,1.0,-100.00,WSW,252,2.0,5.0,62,-99.99,,,-99.99,0.000000,,2013-01-29 12:12:00,
2013-01-29 05:33:00,12.0,0.0,-100.00,WSW,256,2.0,6.0,59,-99.99,,,-99.99,0.000000,,2013-01-29 12:33:00,
2013-01-29 05:43:00,12.0,0.0,-100.00,WSW,256,2.0,6.0,59,-99.99,,,-99.99,0.000000,,2013-01-29 12:43:00,
2013-01-29 05:52:00,12.0,0.0,-100.00,WSW,256,2.0,6.0,59,-99.99,,,-99.99,0.000000,,2013-01-29 12:52:00,
2013-01-29 06:01:00,12.0,0.0,-100.00,WSW,256,2.0,6.0,59,-99.99,,,-99.99,0.000000,,2013-01-29 13:01:00,
2013-01-29 06:11:00,12.0,0.0,-100.00,WSW,256,2.0,6.0,59,-99.99,,,-99.99,0.000000,,2013-01-29 13:11:00,
2013-01-29 06:43:00,12.0,3.0,-100.00,West,279,1.0,4.0,67,-99.99,,,-99.99,0.000000,,2013-01-29 13:43:00,
2013-01-29 06:52:00,12.0,3.0,-100.00,West,279,1.0,4.0,67,-99.99,,,-99.99,0.000000,,2013-01-29 13:52:00,
2013-01-29 07:01:00,12.0,3.0,-100.00,West,279,1.0,4.0,67,-99.99,,,-99.99,0.000000,,2013-01-29 14:01:00,
2013-01-29 07:12:00,12.0,3.0,-100.00,West,279,1.0,4.0,67,-99.99,,,-99.99,0.000000,,2013-01-29 14:12:00,
2013-01-29 07:43:00,14.0,4.0,-100.00,ENE,77,2.0,10.0,64,-99.99,,,-99.99,0.000000,,2013-01-29 14:43:00,
2013-01-29 07:52:00,14.0,4.0,-100.00,ENE,77,2.0,10.0,64,-99.99,,,-99.99,0.000000,,2013-01-29 14:52:00,
2013-01-29 08:02:00,14.0,4.0,-100.00,ENE,77,2.0,10.0,64,-99.99,,,-99.99,0.000000,,2013-01-29 15:02:00,
2013-01-29 08:11:00,14.0,4.0,-100.00,ENE,77,2.0,10.0,64,-99.99,,,-99.99,0.000000,,2013-01-29 15:11:00,
2013-01-29 08:33:00,13.0,9.0,-100.00,East,85,0.0,9.0,82,-99.99,,,-99.99,0.000000,,2013-01-29 15:33:00,
2013-01-29 08:43:00,13.0,9.0,-100.00,East,85,0.0,9.0,82,-99.99,,,-99.99,0.000000,,2013-01-29 15:43:00,
2013-01-29 08:53:00,13.0,9.0,-100.00,East,85,0.0,9.0,82,-99.99,,,-99.99,0.000000,,2013-01-29 15:53:00,
2013-01-29 09:02:00,13.0,9.0,-100.00,East,85,0.0,9.0,82,-99.99,,,-99.99,0.000000,,2013-01-29 16:02:00,
2013-01-29 09:12:00,13.0,9.0,-100.00,East,85,0.0,9.0,82,-99.99,,,-99.99,0.000000,,2013-01-29 16:12:00,
2013-01-29 09:43:00,15.0,11.0,-100.00,WSW,246,4.0,7.0,82,-99.99,,,-99.99,8.000000,,2013-01-29 16:43:00,
2013-01-29 09:53:00,15.0,11.0,-100.00,WSW,246,4.0,7.0,82,-99.99,,,-99.99,8.000000,,2013-01-29 16:53:00,
2013-01-29 10:02:00,15.0,11.0,-100.00,WSW,246,4.0,7.0,82,-99.99,,,-99.99,8.000000,,2013-01-29 17:02:00,
2013-01-29 10:11:00,15.0,11.0,-100.00,WSW,246,4.0,7.0,82,-99.99,,,-99.99,8.000000,,2013-01-29 17:11:00,
2013-01-29 10:42:00,15.0,9.0,-100.00,WSW,244,0.0,10.0,78,-99.99,,,-99.99,13.000000,,2013-01-29 17:42:00,
2013-01-29 10:52:00,15.0,9.0,-100.00,WSW,244,0.0,10.0,78,-99.99,,,-99.99,13.000000,,2013-01-29 17:52:00,
2013-01-29 11:03:00,15.0,9.0,-100.00,WSW,244,0.0,10.0,78,-99.99,,,-99.99,13.000000,,2013-01-29 18:03:00,
2013-01-29 11:12:00,15.0,9.0,-100.00,WSW,244,0.0,10.0,78,-99.99,,,-99.99,13.000000,,2013-01-29 18:12:00,
2013-01-29 11:33:00,15.0,8.0,-100.00,WSW,248,7.0,13.0,73,-99.99,,,-99.99,25.000000,,2013-01-29 18:33:00,
2013-01-29 11:42:00,15.0,8.0,-100.00,WSW,248,7.0,13.0,73,-99.99,,,-99.99,25.000000,,2013-01-29 18:42:00,
2013-01-29 11:52:00,15.0,8.0,-100.00,WSW,248,7.0,13.0,73,-99.99,,,-99.99,25.000000,,2013-01-29 18:52:00,
2013-01-29 12:02:00,15.0,8.0,-100.00,WSW,248,7.0,13.0,73,-99.99,,,-99.99,25.000000,,2013-01-29 19:02:00,
2013-01-29 12:11:00,15.0,8.0,-100.00,WSW,248,7.0,13.0,73,-99.99,,,-99.99,25.000000,,2013-01-29 19:11:00,
2013-01-29 12:42:00,15.0,7.0,-100.00,South,190,0.0,15.0,71,-99.99,,,-99.99,23.000000,,2013-01-29 19:42:00,
2013-01-29 12:52:00,15.0,7.0,-100.00,South,190,0.0,15.0,71,-99.99,,,-99.99,23.000000,,2013-01-29 19:52:00,
2013-01-29 13:02:00,15.0,7.0,-100.00,South,190,0.0,15.0,71,-99.99,,,-99.99,23.000000,,2013-01-29 20:02:00,
2013-01-29 13:12:00,15.0,7.0,-100.00,South,190,0.0,15.0,71,-99.99,,,-99.99,23.000000,,2013-01-29 20:12:00,
2013-01-29 13:42:00,17.0,6.0,-100.00,WSW,256,5.0,10.0,62,-99.99,,,-99.99,39.000000,,2013-01-29 20:42:00,
2013-01-29 13:53:00,17.0,6.0,-100.00,WSW,256,5.0,10.0,62,-99.99,,,-99.99,39.000000,,2013-01-29 20:53:00,
2013-01-29 14:02:00,17.0,6.0,-100.00,WSW,256,5.0,10.0,62,-99.99,,,-99.99,39.000000,,2013-01-29 21:02:00,
2013-01-29 14:12:00,17.0,6.0,-100.00,WSW,256,5.0,10.0,62,-99.99,,,-99.99,39.000000,,2013-01-29 21:12:00,
2013-01-29 14:42:00,18.0,6.0,-100.00,SW,224,4.0,11.0,58,-99.99,,,-99.99,53.000000,,2013-01-29 21:42:00,
2013-01-29 14:53:00,18.0,6.0,-100.00,SW,224,4.0,11.0,58,-99.99,,,-99.99,53.000000,,2013-01-29 21:53:00,
2013-01-29 15:02:00,18.0,6.0,-100.00,SW,224,4.0,11.0,58,-99.99,,,-99.99,53.000000,,2013-01-29 22:02:00,
2013-01-29 15:12:00,18.0,6.0,-100.00,SW,224,4.0,11.0,58,-99.99,,,-99.99,53.000000,,2013-01-29 22:12:00,
2013-01-29 15:42:00,15.0,6.0,-100.00,West,270,0.0,12.0,68,-99.99,,,-99.99,29.000000,,2013-01-29 22:42:00,
2013-01-29 15:53:00,15.0,6.0,-100.00,West,270,0.0,12.0,68,-99.99,,,-99.99,29.000000,,2013-01-29 22:53:00,
2013-01-29 16:02:00,15.0,6.0,-100.00,West,270,0.0,12.0,68,-99.99,,,-99.99,29.000000,,2013-01-29 23:02:00,
2013-01-29 16:11:00,15.0,6.0,-100.00,West,270,0.0,12.0,68,-99.99,,,-99.99,29.000000,,2013-01-29 23:11:00,
2013-01-29 16:33:00,14.0,4.0,-100.00,West,272,0.0,0.0,65,-99.99,,,-99.99,27.000000,,2013-01-29 23:33:00,
2013-01-29 16:42:00,14.0,4.0,-100.00,West,272,0.0,0.0,65,-99.99,,,-99.99,27.000000,,2013-01-29 23:42:00,
2013-01-29 16:53:00,14.0,4.0,-100.00,West,272,0.0,0.0,65,-99.99,,,-99.99,27.000000,,2013-01-29 23:53:00,
2013-01-29 17:02:00,14.0,4.0,-100.00,West,272,0.0,0.0,65,-99.99,,,-99.99,27.000000,,2013-01-30 00:02:00,
2013-01-29 17:11:00,14.0,4.0,-100.00,West,272,0.0,0.0,65,-99.99,,,-99.99,27.000000,,2013-01-30 00:11:00,
2013-01-29 17:33:00,7.0,2.0,-100.00,NE,54,5.0,12.0,80,-99.99,,,-99.99,11.000000,,2013-01-30 00:33:00,
2013-01-29 17:43:00,7.0,2.0,-100.00,NE,54,5.0,12.0,80,-99.99,,,-99.99,11.000000,,2013-01-30 00:43:00,
2013-01-29 17:53:00,7.0,2.0,-100.00,NE,54,5.0,12.0,80,-99.99,,,-99.99,11.000000,,2013-01-30 00:53:00,
2013-01-29 18:01:00,7.0,2.0,-100.00,NE,54,5.0,12.0,80,-99.99,,,-99.99,11.000000,,2013-01-30 01:01:00,
2013-01-29 18:11:00,7.0,2.0,-100.00,NE,54,5.0,12.0,80,-99.99,,,-99.99,11.000000,,2013-01-30 01:11:00,
2013-01-29 18:43:00,3.0,-3.0,-100.00,West,271,2.0,8.0,76,-99.99,,,-99.99,0.000000,,2013-01-30 01:43:00,
2013-01-29 18:52:00,3.0,-3.0,-100.00,West,271,2.0,8.0,76,-99.99,,,-99.99,0.000000,,2013-01-30 01:52:00,
2013-01-29 19:02:00,3.0,-3.0,-100.00,West,271,2.0,8.0,76,-99.99,,,-99.99,0.000000,,2013-01-30 02:02:00,
2013-01-29 19:12:00,3.0,-3.0,-100.00,West,271,2.0,8.0,76,-99.99,,,-99.99,0.000000,,2013-01-30 02:12:00,
2013-01-29 19:33:00,1.0,-5.0,-100.00,WSW,255,4.0,6.0,75,-99.99,,,-99.99,0.000000,,2013-01-30 02:33:00,
2013-01-29 19:42:00,1.0,-5.0,-100.00,WSW,255,4.0,6.0,75,-99.99,,,-99.99,0.000000,,2013-01-30 02:42:00,
2013-01-29 19:53:00,1.0,-5.0,-100.00,WSW,255,4.0,6.0,75,-99.99,,,-99.99,0.000000,,2013-01-30 02:53:00,
2013-01-29 20:02:00,1.0,-5.0,-100.00,WSW,255,4.0,6.0,75,-99.99,,,-99.99,0.000000,,2013-01-30 03:02:00,
2013-01-29 20:11:00,1.0,-5.0,-100.00,WSW,255,4.0,6.0,75,-99.99,,,-99.99,0.000000,,2013-01-30 03:11:00,
2013-01-29 20:32:00,1.0,-5.0,-100.00,West,266,3.0,6.0,75,-99.99,,,-99.99,0.000000,,2013-01-30 03:32:00,
2013-01-29 20:42:00,1.0,-5.0,-100.00,West,266,3.0,6.0,75,-99.99,,,-99.99,0.000000,,2013-01-30 03:42:00,
2013-01-29 20:52:00,1.0,-5.0,-100.00,West,266,3.0,6.0,75,-99.99,,,-99.99,0.000000,,2013-01-30 03:52:00,
2013-01-29 21:02:00,1.0,-5.0,-100.00,West,266,3.0,6.0,75,-99.99,,,-99.99,0.000000,,2013-01-30 04:02:00,
2013-01-29 21:11:00,1.0,-5.0,-100.00,West,266,3.0,6.0,75,-99.99,,,-99.99,0.000000,,2013-01-30 04:11:00,
2013-01-29 21:32:00,3.0,-3.0,-100.00,West,279,2.0,5.0,77,-99.99,,,-99.99,0.000000,,2013-01-30 04:32:00,
2013-01-29 21:42:00,3.0,-3.0,-100.00,West,279,2.0,5.0,77,-99.99,,,-99.99,0.000000,,2013-01-30 04:42:00,
2013-01-29 21:52:00,3.0,-3.0,-100.00,West,279,2.0,5.0,77,-99.99,,,-99.99,0.000000,,2013-01-30 04:52:00,
2013-01-29 22:03:00,3.0,-3.0,-100.00,West,279,2.0,5.0,77,-99.99,,,-99.99,0.000000,,2013-01-30 05:03:00,
2013-01-29 22:11:00,3.0,-3.0,-100.00,West,279,2.0,5.0,77,-99.99,,,-99.99,0.000000,,2013-01-30 05:11:00,
2013-01-29 22:32:00,5.0,0.0,-100.00,WSW,256,1.0,4.0,78,-99.99,,,-99.99,0.000000,,2013-01-30 05:32:00,
2013-01-29 22:43:00,5.0,0.0,-100.00,WSW,256,1.0,4.0,78,-99.99,,,-99.99,0.000000,,2013-01-30 05:43:00,
2013-01-29 22:52:00,5.0,0.0,-100.00,WSW,256,1.0,4.0,78,-99.99,,,-99.99,0.000000,,2013-01-30 05:52:00,
2013-01-29 23:02:00,5.0,0.0,-100.00,WSW,256,1.0,4.0,78,-99.99,,,-99.99,0.000000,,2013-01-30 06:02:00,
2013-01-29 23:11:00,5.0,0.0,-100.00,WSW,256,1.0,4.0,78,-99.99,,,-99.99,0.000000,,2013-01-30 06:11:00,
2013-01-29 23:42:00,8.0,2.0,-100.00,NW,324,1.0,4.0,77,-99.99,,,-99.99,0.000000,,2013-01-30 06:42:00,
2013-01-29 23:52:00,8.0,2.0,-100.00,NW,324,1.0,4.0,77,-99.99,,,-99.99,0.000000,,2013-01-30 06:52:00,